Time;durP1;ratioP1;P1;durP2;ratioP2;P2;SDS_P1;SDS_P2;PMS_P1;PMS_P2;Temp;Humidity;BMP_temperature;BMP_pressure;BME280_temperature;BME280_humidity;BME280_pressure;Samples;Min_cycle;Max_cycle;Signal;HPM_P1;HPM_P2
2023/07/17 00:00:15;;;;;;;2.97;2.67;;;19.90;1.00;;;;;;8301528;28;20189;-63
2023/07/17 00:04:16;;;;;;;3.87;2.40;;;19.90;1.00;;;;;;8304652;28;20231;-64
2023/07/17 00:08:17;;;;;;;3.67;2.70;;;19.80;1.00;;;;;;8297815;28;20205;-64
2023/07/17 00:12:17;;;;;;;3.00;2.70;;;19.60;1.00;;;;;;8304139;28;20229;-65
2023/07/17 00:16:20;;;;;;;3.47;2.80;;;19.40;1.00;;;;;;8301516;28;20218;-65
2023/07/17 00:20:21;;;;;;;3.17;2.43;;;19.30;1.00;;;;;;8303891;28;20182;-65
2023/07/17 00:24:22;;;;;;;3.10;2.50;;;19.20;1.00;;;;;;8300987;28;20194;-65
2023/07/17 00:28:22;;;;;;;4.47;3.00;;;19.20;1.00;;;;;;8301284;28;20186;-64
2023/07/17 00:32:23;;;;;;;3.13;2.53;;;19.10;1.00;;;;;;8305321;28;20206;-64
2023/07/17 00:36:24;;;;;;;4.47;2.90;;;19.00;1.00;;;;;;8304507;28;20210;-65
2023/07/17 00:40:25;;;;;;;5.33;2.97;;;18.90;1.00;;;;;;8302451;28;20193;-65
2023/07/17 00:44:26;;;;;;;3.00;2.40;;;18.90;1.00;;;;;;8303823;28;20230;-64
2023/07/17 00:48:27;;;;;;;2.90;2.50;;;18.90;1.00;;;;;;8305508;28;20326;-64
2023/07/17 00:52:32;;;;;;;2.77;2.47;;;18.80;1.00;;;;;;8302285;28;20186;-64
2023/07/17 00:56:33;;;;;;;3.97;3.00;;;18.70;1.00;;;;;;8297436;28;20221;-65
2023/07/17 01:00:34;;;;;;;3.87;3.07;;;18.70;1.00;;;;;;8303721;28;20246;-64
2023/07/17 01:04:36;;;;;;;3.40;2.97;;;18.60;1.00;;;;;;8306306;28;20242;-65
2023/07/17 01:08:37;;;;;;;3.50;2.60;;;18.50;1.00;;;;;;8318893;28;20222;-66
2023/07/17 01:12:38;;;;;;;2.70;2.50;;;18.40;1.00;;;;;;8303308;28;20214;-65
2023/07/17 01:16:43;;;;;;;2.77;2.47;;;18.30;1.00;;;;;;8302751;28;20213;-64
2023/07/17 01:20:44;;;;;;;3.70;2.90;;;18.20;1.00;;;;;;8305006;28;20249;-67
2023/07/17 01:24:45;;;;;;;3.07;2.70;;;18.00;1.00;;;;;;8302544;28;20260;-65
2023/07/17 01:28:46;;;;;;;4.07;2.93;;;18.00;1.00;;;;;;8302075;28;20182;-64
2023/07/17 01:32:47;;;;;;;3.80;2.90;;;18.00;1.00;;;;;;8305949;28;20197;-66
2023/07/17 01:36:48;;;;;;;7.47;3.20;;;18.20;1.00;;;;;;8309636;28;20230;-66
2023/07/17 01:40:49;;;;;;;6.27;3.17;;;18.40;1.00;;;;;;8305056;28;20197;-67
2023/07/17 01:44:50;;;;;;;2.97;2.57;;;18.50;1.00;;;;;;8302616;28;20182;-64
2023/07/17 01:48:51;;;;;;;2.67;2.47;;;18.40;1.00;;;;;;8307363;28;20198;-65
2023/07/17 01:52:52;;;;;;;4.00;2.87;;;18.40;1.00;;;;;;8309423;28;20290;-64
2023/07/17 01:56:52;;;;;;;3.37;2.63;;;18.20;1.00;;;;;;8302907;28;20210;-64
2023/07/17 02:00:56;;;;;;;3.57;2.80;;;18.20;1.00;;;;;;8304874;28;20191;-65
2023/07/17 02:04:57;;;;;;;3.00;2.63;;;18.10;1.00;;;;;;8303549;28;20218;-65
2023/07/17 02:08:58;;;;;;;3.43;2.67;;;18.00;1.00;;;;;;8304199;28;20202;-68
2023/07/17 02:13:05;;;;;;;3.70;2.47;;;17.90;1.00;;;;;;8305365;28;20197;-65
2023/07/17 02:17:06;;;;;;;2.90;2.53;;;17.80;1.00;;;;;;8310529;28;20292;-64
2023/07/17 02:21:07;;;;;;;2.93;2.20;;;17.70;1.00;;;;;;8307263;28;20183;-64
2023/07/17 02:25:08;;;;;;;3.27;2.80;;;17.70;1.00;;;;;;8309817;28;20190;-65
2023/07/17 02:29:10;;;;;;;3.77;2.67;;;17.60;1.00;;;;;;8305096;28;20202;-65
2023/07/17 02:33:11;;;;;;;3.20;2.83;;;17.50;1.00;;;;;;8304371;28;20240;-66
2023/07/17 02:37:12;;;;;;;3.53;3.00;;;17.40;1.00;;;;;;8307369;28;20344;-67
2023/07/17 02:41:14;;;;;;;4.30;2.83;;;17.40;1.00;;;;;;8305173;28;20186;-65
2023/07/17 02:45:15;;;;;;;3.10;2.60;;;17.40;1.00;;;;;;8303865;28;20195;-65
2023/07/17 02:49:16;;;;;;;6.73;2.90;;;17.30;1.00;;;;;;8309360;28;20191;-65
2023/07/17 02:53:17;;;;;;;4.13;3.10;;;17.30;1.00;;;;;;8304041;28;20187;-66
2023/07/17 02:57:18;;;;;;;3.53;2.20;;;17.30;1.00;;;;;;8304458;28;20225;-66
2023/07/17 03:01:20;;;;;;;3.00;2.47;;;17.30;1.00;;;;;;8316969;28;20182;-66
2023/07/17 03:05:20;;;;;;;3.03;2.53;;;17.20;1.00;;;;;;8305610;28;20225;-66
2023/07/17 03:09:21;;;;;;;4.97;2.60;;;17.20;1.00;;;;;;8304413;28;20213;-66
2023/07/17 03:13:23;;;;;;;2.83;2.37;;;17.20;1.00;;;;;;8303224;28;20247;-65
2023/07/17 03:17:24;;;;;;;3.27;2.47;;;17.20;1.00;;;;;;8305896;28;20214;-66
2023/07/17 03:21:25;;;;;;;3.87;2.93;;;17.30;1.00;;;;;;8305252;28;20185;-65
2023/07/17 03:25:26;;;;;;;4.20;2.77;;;17.40;1.00;;;;;;8303238;28;20187;-65
2023/07/17 03:29:27;;;;;;;3.83;2.50;;;17.70;1.00;;;;;;8299076;28;20190;-65
2023/07/17 03:33:27;;;;;;;3.53;2.80;;;17.90;1.00;;;;;;8304834;28;20272;-66
2023/07/17 03:37:31;;;;;;;3.50;2.80;;;18.30;1.00;;;;;;8305134;28;20206;-65
2023/07/17 03:41:32;;;;;;;3.83;2.67;;;18.80;1.00;;;;;;8305939;28;20183;-66
2023/07/17 03:45:33;;;;;;;3.77;2.40;;;19.40;1.00;;;;;;8301232;28;20387;-66
2023/07/17 03:49:34;;;;;;;4.50;2.93;;;20.00;1.00;;;;;;8306172;28;20188;-65
2023/07/17 03:53:35;;;;;;;4.80;3.07;;;20.40;1.00;;;;;;8300226;28;20234;-66
2023/07/17 03:57:36;;;;;;;3.97;3.20;;;20.50;1.00;;;;;;8303634;28;20229;-65
2023/07/17 04:01:37;;;;;;;6.40;4.33;;;21.00;1.00;;;;;;8301518;28;20190;-65
2023/07/17 04:05:37;;;;;;;3.90;3.00;;;21.60;1.00;;;;;;8306123;28;20226;-66
2023/07/17 04:09:39;;;;;;;3.97;2.93;;;21.90;1.00;;;;;;8301937;28;20194;-65
2023/07/17 04:13:39;;;;;;;3.60;2.80;;;21.70;1.00;;;;;;8298887;28;20333;-65
2023/07/17 04:17:40;;;;;;;4.93;2.87;;;21.40;1.00;;;;;;8307714;28;20218;-65
2023/07/17 04:21:41;;;;;;;3.83;3.17;;;21.30;1.00;;;;;;8304737;28;20182;-65
2023/07/17 04:25:42;;;;;;;24.13;5.00;;;21.30;1.00;;;;;;8304389;28;20194;-68
2023/07/17 04:29:43;;;;;;;3.33;2.67;;;21.90;1.00;;;;;;8306822;28;20186;-66
2023/07/17 04:33:44;;;;;;;4.80;2.93;;;22.70;1.00;;;;;;8305079;28;20201;-66
2023/07/17 04:37:44;;;;;;;3.37;2.83;;;23.40;1.00;;;;;;8301743;28;20190;-66
2023/07/17 04:41:49;;;;;;;4.13;2.70;;;23.90;1.00;;;;;;8306994;28;20186;-67
2023/07/17 04:45:50;;;;;;;3.43;2.50;;;24.50;99.90;;;;;;8301385;28;20186;-67
2023/07/17 04:49:54;;;;;;;3.47;2.50;;;25.10;99.90;;;;;;8307268;28;20190;-66
2023/07/17 04:53:54;;;;;;;4.40;2.63;;;25.60;99.90;;;;;;8303354;28;20190;-66
2023/07/17 04:57:55;;;;;;;3.40;2.27;;;26.10;99.90;;;;;;8303769;28;20206;-68
2023/07/17 05:01:56;;;;;;;3.97;2.90;;;26.50;99.90;;;;;;8298599;28;20182;-66
2023/07/17 05:05:58;;;;;;;4.60;2.40;;;26.70;99.90;;;;;;8298780;28;20269;-68
2023/07/17 05:10:03;;;;;;;5.03;2.60;;;26.80;99.90;;;;;;8280579;28;20198;-67
2023/07/17 05:14:04;;;;;;;5.45;2.83;;;26.70;99.90;;;;;;8305720;28;20225;-68
2023/07/17 05:18:04;;;;;;;5.47;2.65;;;25.70;99.90;;;;;;8302920;28;20225;-68
2023/07/17 05:22:08;;;;;;;5.37;3.43;;;24.90;99.90;;;;;;8299546;28;20313;-67
2023/07/17 05:26:09;;;;;;;4.13;2.83;;;24.00;99.90;;;;;;8298552;28;20182;-69
2023/07/17 05:30:10;;;;;;;5.83;2.87;;;23.70;99.90;;;;;;8311953;28;20269;-68
2023/07/17 05:34:11;;;;;;;7.80;2.63;;;23.50;99.90;;;;;;8311784;28;20207;-65
2023/07/17 05:38:12;;;;;;;4.73;2.63;;;23.50;99.90;;;;;;8303872;28;20175;-66
2023/07/17 05:42:16;;;;;;;4.47;2.63;;;23.60;99.90;;;;;;8311170;28;20171;-66
2023/07/17 05:46:17;;;;;;;5.30;2.73;;;23.70;99.90;;;;;;8308463;28;20190;-67
2023/07/17 05:50:19;;;;;;;5.47;2.67;;;23.70;99.90;;;;;;8312248;28;20270;-68
2023/07/17 05:54:20;;;;;;;4.90;2.70;;;23.50;99.90;;;;;;8298992;28;20206;-66
2023/07/17 05:58:22;;;;;;;4.03;2.50;;;23.50;99.90;;;;;;8302999;28;20186;-66
2023/07/17 06:02:26;;;;;;;4.67;2.43;;;23.70;99.90;;;;;;8309277;28;20179;-63
2023/07/17 06:06:27;;;;;;;7.33;2.83;;;23.80;99.90;;;;;;8299740;28;20218;-65
2023/07/17 06:10:29;;;;;;;3.63;2.50;;;24.10;99.90;;;;;;8304006;28;20197;-63
2023/07/17 06:14:30;;;;;;;5.23;2.70;;;24.50;99.90;;;;;;8316143;28;20261;-64
2023/07/17 06:18:31;;;;;;;5.23;2.70;;;24.70;99.90;;;;;;8317263;28;20182;-66
2023/07/17 06:22:32;;;;;;;3.63;2.60;;;24.80;99.90;;;;;;8297597;28;20233;-64
2023/07/17 06:26:33;;;;;;;5.63;2.53;;;25.00;99.90;;;;;;8301640;28;20190;-67
2023/07/17 06:30:34;;;;;;;5.30;2.70;;;25.10;99.90;;;;;;8298723;28;20225;-67
2023/07/17 06:34:35;;;;;;;2.60;2.30;;;25.30;99.90;;;;;;8291051;28;20222;-64
2023/07/17 06:38:36;;;;;;;4.53;2.57;;;25.50;99.90;;;;;;8314782;28;20189;-64
2023/07/17 06:42:37;;;;;;;3.97;2.70;;;25.60;99.90;;;;;;8304537;28;20222;-65
2023/07/17 06:46:38;;;;;;;5.53;3.10;;;25.20;99.90;;;;;;8316315;28;20213;-63
2023/07/17 06:50:39;;;;;;;3.70;2.37;;;24.80;99.90;;;;;;8301121;28;20189;-64
2023/07/17 06:54:39;;;;;;;4.33;2.67;;;24.40;99.90;;;;;;8302984;28;20210;-63
2023/07/17 06:58:41;;;;;;;4.33;2.90;;;24.50;99.90;;;;;;8297402;28;20187;-65
2023/07/17 07:02:42;;;;;;;5.40;2.53;;;24.40;99.90;;;;;;8294709;28;20189;-63
2023/07/17 07:06:43;;;;;;;4.33;3.00;;;24.20;99.90;;;;;;8300390;28;20274;-64
2023/07/17 07:10:44;;;;;;;4.87;2.50;;;24.00;99.90;;;;;;8305256;28;20191;-65
2023/07/17 07:14:45;;;;;;;2.73;2.30;;;24.20;99.90;;;;;;8305294;28;20233;-65
2023/07/17 07:18:46;;;;;;;5.80;2.73;;;24.60;99.90;;;;;;8295005;28;20375;-64
2023/07/17 07:22:47;;;;;;;3.87;2.67;;;24.90;99.90;;;;;;8294019;28;20190;-64
2023/07/17 07:26:48;;;;;;;6.00;2.47;;;25.20;99.90;;;;;;8295754;28;20260;-64
2023/07/17 07:30:55;;;;;;;3.97;2.45;;;25.60;99.90;;;;;;8306753;28;20194;-64
2023/07/17 07:34:56;;;;;;;5.22;2.70;;;25.80;99.90;;;;;;8298401;28;20211;-66
2023/07/17 07:38:57;;;;;;;4.30;2.63;;;25.70;99.90;;;;;;8297897;28;20240;-65
2023/07/17 07:42:58;;;;;;;5.47;2.70;;;25.70;99.90;;;;;;8298572;28;20243;-68
2023/07/17 07:46:58;;;;;;;3.40;2.87;;;25.60;99.90;;;;;;8284432;28;20248;-65
2023/07/17 07:50:59;;;;;;;6.07;2.80;;;25.70;99.90;;;;;;8294700;28;20277;-66
2023/07/17 07:55:00;;;;;;;5.80;2.60;;;25.70;99.90;;;;;;8300207;28;20226;-64
2023/07/17 07:59:01;;;;;;;6.13;3.17;;;25.80;99.90;;;;;;8295947;28;20186;-66
2023/07/17 08:03:02;;;;;;;6.00;3.00;;;25.90;99.90;;;;;;8314544;28;20210;-67
2023/07/17 08:07:03;;;;;;;5.37;3.00;;;25.80;99.90;;;;;;8294277;28;20241;-68
2023/07/17 08:11:04;;;;;;;4.43;3.00;;;25.60;99.90;;;;;;8294948;28;20337;-65
2023/07/17 08:15:07;;;;;;;5.90;3.17;;;25.40;99.90;;;;;;8299031;28;20207;-66
2023/07/17 08:19:12;;;;;;;5.87;3.13;;;25.30;99.90;;;;;;8302701;28;20276;-67
2023/07/17 08:23:12;;;;;;;4.90;3.53;;;25.40;99.90;;;;;;8299847;28;20186;-65
2023/07/17 08:27:13;;;;;;;6.77;3.60;;;25.60;99.90;;;;;;8292619;28;20190;-65
2023/07/17 08:31:14;;;;;;;5.22;3.03;;;25.90;99.90;;;;;;8309376;28;20190;-64
2023/07/17 08:35:15;;;;;;;4.40;3.20;;;26.10;99.90;;;;;;8294417;28;20214;-66
2023/07/17 08:39:16;;;;;;;5.38;3.28;;;26.50;99.90;;;;;;8297364;28;20186;-66
2023/07/17 08:43:17;;;;;;;4.03;3.40;;;26.90;99.90;;;;;;8298102;28;20200;-67
2023/07/17 08:47:21;;;;;;;5.65;3.20;;;27.30;99.90;;;;;;8309007;28;20213;-65
2023/07/17 08:51:26;;;;;;;5.75;3.22;;;27.30;99.90;;;;;;8298686;28;20184;-65
2023/07/17 08:55:32;;;;;;;4.45;3.00;;;27.40;99.90;;;;;;8298643;28;20213;-67
2023/07/17 08:59:36;;;;;;;4.28;3.25;;;27.40;99.90;;;;;;8304456;28;20194;-67
2023/07/17 09:03:38;;;;;;;6.10;3.38;;;27.30;99.90;;;;;;8304828;28;20284;-68
2023/07/17 09:07:39;;;;;;;6.72;3.50;;;27.00;99.90;;;;;;8306614;28;20198;-66
2023/07/17 09:11:39;;;;;;;4.03;2.90;;;26.60;99.90;;;;;;8298150;28;20196;-67
2023/07/17 09:15:40;;;;;;;5.50;3.60;;;26.50;99.90;;;;;;8303160;28;20233;-66
2023/07/17 09:19:41;;;;;;;5.07;3.17;;;26.40;99.90;;;;;;8310658;28;20277;-64
2023/07/17 09:24:01;;;;;;;4.63;3.22;;;27.10;99.90;;;;;;8299727;28;20185;-67
2023/07/17 09:28:04;;;;;;;5.45;3.30;;;28.00;99.90;;;;;;8308623;28;20248;-67
2023/07/17 09:32:18;;;;;;;5.20;3.38;;;28.10;99.90;;;;;;8306777;28;20290;-66
2023/07/17 09:36:21;;;;;;;7.68;3.63;;;28.00;99.90;;;;;;8305867;28;20295;-66
2023/07/17 09:40:22;;;;;;;4.72;3.45;;;28.00;99.90;;;;;;8306545;28;20192;-66
2023/07/17 09:44:23;;;;;;;5.25;2.95;;;28.40;99.90;;;;;;8308410;28;20183;-66
2023/07/17 09:48:27;;;;;;;6.38;3.95;;;29.00;99.90;;;;;;8307161;28;20193;-67
2023/07/17 09:52:29;;;;;;;5.18;3.45;;;29.20;99.90;;;;;;8306107;28;20187;-67
2023/07/17 09:56:31;;;;;;;5.25;3.67;;;29.10;99.90;;;;;;8311583;28;20264;-65
2023/07/17 10:00:39;;;;;;;4.35;3.08;;;28.60;99.90;;;;;;8323512;28;20190;-70
2023/07/17 10:04:45;;;;;;;5.22;3.83;;;28.60;99.90;;;;;;8303203;28;20225;-70
2023/07/17 10:08:56;;;;;;;5.70;3.45;;;28.40;99.90;;;;;;8299087;28;20208;-67
2023/07/17 10:12:58;;;;;;;5.10;3.63;;;28.40;99.90;;;;;;8302874;28;20198;-70
2023/07/17 10:16:59;;;;;;;8.23;3.53;;;28.30;99.90;;;;;;8304655;28;20267;-67
2023/07/17 10:21:04;;;;;;;4.45;3.65;;;28.20;99.90;;;;;;8305657;28;20186;-66
2023/07/17 10:25:32;;;;;;;5.88;3.60;;;28.00;99.90;;;;;;8299343;28;20189;-65
2023/07/17 10:29:43;;;;;;;6.05;3.00;;;27.10;99.90;;;;;;8303998;28;20186;-65
2023/07/17 10:33:52;;;;;;;5.18;3.60;;;26.80;99.90;;;;;;8294617;28;20193;-66
2023/07/17 10:38:08;;;;;;;4.57;3.25;;;26.40;99.90;;;;;;8301677;28;20214;-63
2023/07/17 10:42:09;;;;;;;4.43;3.42;;;26.20;99.90;;;;;;8300894;28;20186;-67
2023/07/17 10:46:11;;;;;;;7.97;3.42;;;26.30;99.90;;;;;;8302810;28;20183;-66
2023/07/17 10:50:12;;;;;;;8.45;3.83;;;26.40;99.90;;;;;;8296598;28;20229;-68
2023/07/17 10:54:14;;;;;;;4.22;3.13;;;26.60;99.90;;;;;;8321204;28;20190;-66
2023/07/17 10:58:19;;;;;;;5.28;3.53;;;27.00;99.90;;;;;;8304267;28;20198;-65
2023/07/17 11:02:20;;;;;;;5.57;3.53;;;27.80;99.90;;;;;;8314548;28;20230;-65
2023/07/17 11:06:25;;;;;;;6.95;3.50;;;28.60;99.90;;;;;;8296999;28;20226;-67
2023/07/17 11:10:25;;;;;;;5.35;3.17;;;29.20;99.90;;;;;;8301807;28;20191;-65
2023/07/17 11:14:27;;;;;;;6.05;3.83;;;29.40;99.90;;;;;;8294046;28;20210;-66
2023/07/17 11:18:30;;;;;;;6.00;3.70;;;29.30;99.90;;;;;;8296783;28;20183;-67
2023/07/17 11:22:40;;;;;;;4.80;3.80;;;28.80;99.90;;;;;;8292585;28;20210;-64
2023/07/17 11:26:41;;;;;;;6.60;3.40;;;28.90;99.90;;;;;;8299523;28;20187;-69
2023/07/17 11:30:48;;;;;;;6.03;4.15;;;28.70;99.90;;;;;;8302058;28;20193;-67
2023/07/17 11:34:54;;;;;;;6.35;3.90;;;27.90;99.90;;;;;;8292839;28;20329;-68
2023/07/17 11:39:11;;;;;;;6.60;4.10;;;27.70;99.90;;;;;;8296372;28;20183;-67
2023/07/17 11:43:13;;;;;;;8.77;4.60;;;27.30;99.90;;;;;;8298918;28;20178;-68
2023/07/17 11:47:13;;;;;;;5.85;3.92;;;27.00;99.90;;;;;;8295996;28;20194;-69
2023/07/17 11:51:14;;;;;;;4.28;3.58;;;27.10;99.90;;;;;;8302459;28;20233;-69
2023/07/17 11:55:43;;;;;;;5.85;3.53;;;27.80;99.90;;;;;;8296997;28;20232;-67
2023/07/17 11:59:47;;;;;;;10.63;3.92;;;28.70;99.90;;;;;;8298988;28;20220;-68
2023/07/17 12:03:48;;;;;;;5.05;3.85;;;29.30;99.90;;;;;;8313684;28;20233;-68
2023/07/17 12:07:49;;;;;;;8.18;3.85;;;29.30;99.90;;;;;;8298688;28;20272;-68
2023/07/17 12:11:53;;;;;;;5.85;3.63;;;28.90;99.90;;;;;;8298294;28;20194;-71
2023/07/17 12:15:54;;;;;;;7.18;3.83;;;28.80;99.90;;;;;;8305523;28;20215;-69
2023/07/17 12:19:55;;;;;;;4.88;3.83;;;28.70;99.90;;;;;;8298634;28;20274;-66
2023/07/17 12:23:55;;;;;;;7.53;3.72;;;28.40;99.90;;;;;;8295263;28;20187;-69
2023/07/17 12:28:01;;;;;;;4.93;3.60;;;28.60;99.90;;;;;;8296920;28;20197;-65
2023/07/17 12:32:01;;;;;;;6.88;3.70;;;29.00;99.90;;;;;;8293942;28;20217;-66
2023/07/17 12:36:02;;;;;;;4.10;3.50;;;29.40;99.90;;;;;;8298406;28;20215;-69
2023/07/17 12:40:04;;;;;;;6.38;3.80;;;29.70;99.90;;;;;;8301648;28;20183;-68
2023/07/17 12:44:05;;;;;;;5.68;3.60;;;30.20;99.90;;;;;;8297773;28;20182;-68
2023/07/17 12:48:06;;;;;;;6.72;3.67;;;30.50;99.90;;;;;;8295014;28;20190;-67
2023/07/17 12:52:07;;;;;;;6.35;3.67;;;30.60;99.90;;;;;;8295728;28;20194;-68
2023/07/17 12:56:08;;;;;;;4.28;3.20;;;29.50;99.90;;;;;;8300356;28;20210;-68
2023/07/17 13:00:09;;;;;;;5.03;3.55;;;28.70;99.90;;;;;;8296660;28;20178;-71
2023/07/17 13:04:10;;;;;;;4.75;3.50;;;28.60;99.90;;;;;;8295208;28;20312;-69
2023/07/17 13:08:11;;;;;;;5.07;3.70;;;29.10;99.90;;;;;;8304764;28;20187;-68
2023/07/17 13:12:12;;;;;;;5.97;3.75;;;29.50;99.90;;;;;;8306011;28;20193;-67
2023/07/17 13:16:13;;;;;;;8.32;4.03;;;29.30;99.90;;;;;;8298598;28;20218;-69
2023/07/17 13:20:14;;;;;;;5.13;3.63;;;29.50;99.90;;;;;;8299730;28;20190;-68
2023/07/17 13:24:18;;;;;;;5.43;4.07;;;29.20;99.90;;;;;;8292242;28;20230;-64
2023/07/17 13:28:19;;;;;;;8.68;3.88;;;28.70;99.90;;;;;;8295466;28;20190;-63
2023/07/17 13:32:20;;;;;;;8.40;3.80;;;28.60;99.90;;;;;;8302557;28;20182;-63
2023/07/17 13:36:21;;;;;;;5.20;3.70;;;28.80;99.90;;;;;;8294896;28;20241;-66
2023/07/17 13:40:24;;;;;;;6.03;4.10;;;28.90;99.90;;;;;;8303839;28;20179;-63
2023/07/17 13:44:25;;;;;;;5.57;3.90;;;29.10;99.90;;;;;;8304536;28;20187;-65
2023/07/17 13:48:26;;;;;;;4.28;3.45;;;29.20;99.90;;;;;;8302782;28;20210;-68
2023/07/17 13:52:27;;;;;;;6.30;3.72;;;29.50;99.90;;;;;;8301272;28;20205;-63
2023/07/17 13:56:29;;;;;;;5.90;3.55;;;29.80;99.90;;;;;;8298990;28;20218;-64
2023/07/17 14:00:30;;;;;;;5.47;3.33;;;29.60;99.90;;;;;;8305397;28;20190;-65
2023/07/17 14:04:31;;;;;;;6.10;3.60;;;29.30;99.90;;;;;;8300793;28;20268;-65
2023/07/17 14:08:32;;;;;;;4.97;2.90;;;29.50;99.90;;;;;;8306232;28;20250;-63
2023/07/17 14:12:33;;;;;;;6.20;3.60;;;29.60;99.90;;;;;;8295193;28;20189;-67
2023/07/17 14:16:34;;;;;;;6.47;3.58;;;29.50;99.90;;;;;;8301479;28;20271;-65
2023/07/17 14:20:35;;;;;;;4.75;3.08;;;29.10;99.90;;;;;;8301825;28;20183;-64
2023/07/17 14:24:36;;;;;;;4.95;3.10;;;28.90;99.90;;;;;;8301157;28;20190;-65
2023/07/17 14:28:37;;;;;;;4.63;3.40;;;29.00;99.90;;;;;;8300945;28;20202;-65
2023/07/17 14:32:38;;;;;;;4.65;3.25;;;29.20;99.90;;;;;;8302439;28;20198;-65
2023/07/17 14:36:39;;;;;;;6.28;3.25;;;29.20;99.90;;;;;;8300166;28;20308;-64
2023/07/17 14:40:40;;;;;;;6.15;3.33;;;29.40;99.90;;;;;;8303977;28;20190;-65
2023/07/17 14:44:41;;;;;;;6.20;3.10;;;29.80;99.90;;;;;;8297072;28;20313;-65
2023/07/17 14:48:42;;;;;;;5.70;3.30;;;29.90;99.90;;;;;;8300512;28;20193;-65
2023/07/17 14:52:42;;;;;;;6.78;3.60;;;29.90;99.90;;;;;;8296884;28;20189;-65
2023/07/17 14:56:45;;;;;;;5.80;2.90;;;30.00;99.90;;;;;;8299603;28;20214;-65
2023/07/17 15:00:46;;;;;;;4.72;3.30;;;30.30;99.90;;;;;;8295676;28;20187;-66
2023/07/17 15:04:47;;;;;;;7.55;3.80;;;30.00;99.90;;;;;;8294767;28;20318;-65
2023/07/17 15:08:48;;;;;;;9.65;3.67;;;29.40;99.90;;;;;;8295633;28;20340;-63
2023/07/17 15:12:55;;;;;;;4.28;3.08;;;29.50;99.90;;;;;;8303302;28;20217;-66
2023/07/17 15:16:56;;;;;;;6.57;3.60;;;29.00;99.90;;;;;;8303964;28;20211;-67
2023/07/17 15:20:58;;;;;;;4.05;3.10;;;28.90;99.90;;;;;;8297421;28;20195;-64
2023/07/17 15:24:59;;;;;;;7.18;3.45;;;28.60;99.90;;;;;;8297874;28;20182;-65
2023/07/17 15:28:59;;;;;;;7.55;3.47;;;28.50;99.90;;;;;;8297480;28;20207;-66
2023/07/17 15:33:00;;;;;;;4.57;3.30;;;28.50;99.90;;;;;;8304786;28;20199;-64
2023/07/17 15:37:01;;;;;;;4.38;3.70;;;28.70;99.90;;;;;;8297869;28;20202;-65
2023/07/17 15:41:02;;;;;;;6.45;3.40;;;29.00;99.90;;;;;;8305399;28;20270;-64
2023/07/17 15:45:04;;;;;;;8.25;3.45;;;29.00;99.90;;;;;;8300609;28;20253;-65
2023/07/17 15:49:05;;;;;;;4.40;3.40;;;28.90;99.90;;;;;;8303851;28;20194;-64
2023/07/17 15:53:06;;;;;;;5.65;3.47;;;28.70;99.90;;;;;;8302660;28;20186;-63
2023/07/17 15:57:07;;;;;;;5.70;3.08;;;28.40;99.90;;;;;;8300595;28;20321;-63
2023/07/17 16:01:08;;;;;;;4.57;3.15;;;28.40;99.90;;;;;;8300479;28;20186;-65
2023/07/17 16:05:09;;;;;;;6.72;3.80;;;28.80;99.90;;;;;;8299212;28;20243;-64
2023/07/17 16:09:13;;;;;;;5.45;3.90;;;29.10;99.90;;;;;;8292041;28;20204;-65
2023/07/17 16:13:14;;;;;;;6.55;3.42;;;29.20;99.90;;;;;;8292942;28;20217;-65
2023/07/17 16:17:15;;;;;;;5.45;3.28;;;28.80;99.90;;;;;;8296225;28;20210;-67
2023/07/17 16:21:17;;;;;;;4.15;3.40;;;28.80;99.90;;;;;;8297869;28;20178;-64
2023/07/17 16:25:17;;;;;;;4.55;3.25;;;29.10;99.90;;;;;;8300091;28;20192;-64
2023/07/17 16:29:18;;;;;;;4.60;3.30;;;29.00;99.90;;;;;;8290935;28;20190;-65
2023/07/17 16:33:19;;;;;;;3.58;2.95;;;29.20;99.90;;;;;;8307120;28;20315;-65
2023/07/17 16:37:21;;;;;;;4.35;3.03;;;29.20;99.90;;;;;;8290949;28;20249;-69
2023/07/17 16:41:26;;;;;;;6.00;3.30;;;29.20;99.90;;;;;;8276970;28;20186;-66
2023/07/17 16:45:26;;;;;;;5.53;3.53;;;29.20;99.90;;;;;;8289345;28;20245;-64
2023/07/17 16:49:29;;;;;;;5.78;3.53;;;28.90;99.90;;;;;;8286213;28;20256;-64
2023/07/17 16:53:30;;;;;;;5.85;3.60;;;28.60;99.90;;;;;;8282958;28;20183;-64
2023/07/17 16:57:31;;;;;;;5.97;3.65;;;28.30;99.90;;;;;;8290644;28;20301;-64
2023/07/17 17:01:33;;;;;;;6.55;3.80;;;28.30;99.90;;;;;;8288534;28;20191;-65
2023/07/17 17:05:34;;;;;;;4.20;3.38;;;28.30;99.90;;;;;;8290513;28;20226;-65
2023/07/17 17:09:34;;;;;;;7.60;3.72;;;28.20;99.90;;;;;;8297313;28;20284;-64
2023/07/17 17:13:35;;;;;;;4.45;3.42;;;28.10;99.90;;;;;;8303741;28;20189;-64
2023/07/17 17:17:37;;;;;;;6.75;3.70;;;28.10;99.90;;;;;;8306906;28;20211;-65
2023/07/17 17:21:38;;;;;;;8.20;4.05;;;28.10;99.90;;;;;;8308951;28;20183;-64
2023/07/17 17:25:39;;;;;;;6.00;3.53;;;28.00;99.90;;;;;;8319394;28;20244;-65
2023/07/17 17:29:40;;;;;;;4.28;3.40;;;28.50;99.90;;;;;;8303984;28;20195;-65
2023/07/17 17:33:41;;;;;;;7.20;3.38;;;28.70;99.90;;;;;;8295962;28;20186;-64
2023/07/17 17:37:42;;;;;;;5.25;3.80;;;28.20;99.90;;;;;;8302741;28;20261;-65
2023/07/17 17:41:46;;;;;;;9.35;3.80;;;28.20;99.90;;;;;;8300028;28;20201;-64
2023/07/17 17:45:48;;;;;;;7.18;3.75;;;27.70;99.90;;;;;;8300933;28;20218;-63
2023/07/17 17:49:49;;;;;;;7.18;3.85;;;27.10;99.90;;;;;;8301259;28;20284;-65
2023/07/17 17:53:50;;;;;;;8.48;3.83;;;26.80;99.90;;;;;;8297761;28;20187;-66
2023/07/17 17:57:50;;;;;;;6.60;3.97;;;26.80;99.90;;;;;;8303181;28;20240;-65
2023/07/17 18:01:51;;;;;;;7.00;4.32;;;27.30;99.90;;;;;;8284976;28;20245;-65
2023/07/17 18:05:52;;;;;;;7.45;4.15;;;27.90;99.90;;;;;;8298803;28;20285;-65
2023/07/17 18:09:53;;;;;;;7.80;4.32;;;28.30;99.90;;;;;;8298255;28;20189;-65
2023/07/17 18:13:56;;;;;;;5.35;4.20;;;28.60;99.90;;;;;;8289427;28;20182;-65
2023/07/17 18:17:58;;;;;;;7.25;3.70;;;29.00;99.90;;;;;;8297132;28;20210;-64
2023/07/17 18:21:58;;;;;;;5.55;3.95;;;29.00;99.90;;;;;;8300207;28;20190;-65
2023/07/17 18:25:59;;;;;;;8.30;3.78;;;28.40;99.90;;;;;;8297335;28;20186;-65
2023/07/17 18:30:03;;;;;;;12.43;4.53;;;27.90;99.90;;;;;;8296970;28;20209;-65
2023/07/17 18:34:13;;;;;;;5.22;3.58;;;27.20;99.90;;;;;;8293617;28;20186;-64
2023/07/17 18:38:16;;;;;;;6.43;4.18;;;26.60;99.90;;;;;;8318196;28;20253;-65
2023/07/17 18:42:17;;;;;;;8.17;3.73;;;26.10;99.90;;;;;;8295854;28;20186;-65
2023/07/17 18:46:18;;;;;;;6.63;3.93;;;25.80;99.90;;;;;;8300751;28;20194;-65
2023/07/17 18:50:19;;;;;;;6.30;3.57;;;25.50;99.90;;;;;;8303164;28;20194;-64
2023/07/17 18:54:19;;;;;;;6.93;4.20;;;25.30;99.90;;;;;;8308069;28;20229;-64
2023/07/17 18:58:20;;;;;;;4.77;3.83;;;25.00;99.90;;;;;;8291434;28;20210;-63
2023/07/17 19:02:21;;;;;;;7.27;3.50;;;24.80;99.90;;;;;;8287283;28;20212;-64
2023/07/17 19:06:22;;;;;;;4.87;3.30;;;24.50;99.90;;;;;;8282464;28;20249;-64
2023/07/17 19:10:23;;;;;;;6.93;3.30;;;24.30;99.90;;;;;;8293696;28;20180;-64
2023/07/17 19:14:27;;;;;;;3.50;3.20;;;24.00;99.90;;;;;;8288881;28;20186;-64
2023/07/17 19:18:28;;;;;;;4.17;3.00;;;23.80;99.90;;;;;;8296685;28;20195;-64
2023/07/17 19:22:29;;;;;;;5.40;3.40;;;23.50;99.90;;;;;;8296895;28;20178;-64
2023/07/17 19:26:31;;;;;;;4.10;3.37;;;23.20;99.90;;;;;;8295979;28;20190;-64
2023/07/17 19:30:32;;;;;;;4.67;3.10;;;22.90;99.90;;;;;;8292807;28;20198;-64
2023/07/17 19:34:34;;;;;;;4.83;3.20;;;22.60;99.90;;;;;;8298235;28;20212;-64
2023/07/17 19:38:34;;;;;;;4.87;3.57;;;22.40;99.90;;;;;;8301082;28;20289;-64
2023/07/17 19:42:35;;;;;;;3.73;2.80;;;22.20;99.90;;;;;;8287594;28;20246;-63
2023/07/17 19:46:36;;;;;;;4.03;3.30;;;22.00;99.90;;;;;;8293805;28;20191;-64
2023/07/17 19:50:37;;;;;;;4.23;3.60;;;22.00;99.90;;;;;;8287101;28;20205;-63
2023/07/17 19:54:38;;;;;;;5.53;3.50;;;21.90;99.90;;;;;;8291936;28;20309;-64
2023/07/17 19:58:39;;;;;;;5.30;3.50;;;21.70;99.90;;;;;;8286813;28;20235;-63
2023/07/17 20:02:46;;;;;;;4.83;3.50;;;21.70;99.90;;;;;;8289996;28;20190;-63
2023/07/17 20:06:48;;;;;;;3.30;2.90;;;21.60;99.90;;;;;;8286849;28;20218;-63
2023/07/17 20:10:50;;;;;;;3.57;2.97;;;21.60;99.90;;;;;;8292176;28;20190;-64
2023/07/17 20:14:51;;;;;;;4.33;3.17;;;21.50;99.90;;;;;;8293607;28;20295;-64
2023/07/17 20:18:52;;;;;;;4.50;2.73;;;21.30;99.90;;;;;;8293773;28;20190;-64
2023/07/17 20:22:53;;;;;;;4.67;3.40;;;21.10;99.90;;;;;;8284212;28;20186;-65
2023/07/17 20:26:54;;;;;;;4.47;3.20;;;21.00;99.90;;;;;;8291274;28;20190;-63
2023/07/17 20:30:55;;;;;;;5.33;3.50;;;20.90;99.90;;;;;;8292543;28;20193;-64
2023/07/17 20:34:56;;;;;;;4.83;3.67;;;20.80;99.90;;;;;;8300799;28;20222;-64
2023/07/17 20:38:57;;;;;;;3.43;2.80;;;20.60;99.90;;;;;;8287713;28;20182;-63
2023/07/17 20:42:59;;;;;;;4.27;3.00;;;20.50;99.90;;;;;;8292578;28;20239;-63
2023/07/17 20:47:00;;;;;;;5.07;3.10;;;20.40;99.90;;;;;;8299754;28;20214;-64
2023/07/17 20:51:10;;;;;;;3.30;3.00;;;20.30;99.90;;;;;;8295407;28;20194;-64
2023/07/17 20:55:15;;;;;;;4.07;3.17;;;20.20;99.90;;;;;;8290025;28;20238;-64
2023/07/17 20:59:17;;;;;;;3.93;3.17;;;20.10;99.90;;;;;;8293913;28;20214;-64